Time;durP1;ratioP1;P1;durP2;ratioP2;P2;SDS_P1;SDS_P2;PMS_P1;PMS_P2;Temp;Humidity;BMP_temperature;BMP_pressure;BME280_temperature;BME280_humidity;BME280_pressure;Samples;Min_cycle;Max_cycle;Signal;HPM_P1;HPM_P2
2021/12/08 00:01:08;;;;;;;5.60;2.80;;;;;;;4.51;78.73;97644.00;4916117;29;20040;-63
2021/12/08 00:03:38;;;;;;;3.47;2.72;;;;;;;4.51;78.57;97642.28;4899196;28;20059;-62
2021/12/08 00:06:06;;;;;;;4.63;2.60;;;;;;;4.53;78.63;97637.16;4916211;29;20042;-63
2021/12/08 00:08:38;;;;;;;5.20;2.95;;;;;;;4.51;78.89;97632.03;4916197;29;20040;-62
2021/12/08 00:13:53;;;;;;;3.97;2.75;;;;;;;4.52;78.78;97643.13;4915988;29;20488;-62
2021/12/08 00:16:19;;;;;;;2.85;2.47;;;;;;;4.51;78.75;97655.09;4899118;28;20074;-63
2021/12/08 00:18:49;;;;;;;3.65;2.42;;;;;;;4.52;78.92;97644.00;4916220;29;20036;-63
2021/12/08 00:21:16;;;;;;;3.60;3.25;;;;;;;4.54;78.69;97649.13;4914826;29;20044;-62
2021/12/08 00:23:46;;;;;;;6.63;3.05;;;;;;;4.55;78.89;97649.13;4914794;29;20040;-63
2021/12/08 00:26:13;;;;;;;3.03;2.70;;;;;;;4.54;78.77;97644.00;4899032;28;20083;-63
2021/12/08 00:28:39;;;;;;;4.85;2.20;;;;;;;4.54;78.60;97660.25;4899280;28;20035;-63
2021/12/08 00:31:06;;;;;;;4.30;3.13;;;;;;;4.55;78.78;97653.41;4915735;29;20098;-63
2021/12/08 00:33:35;;;;;;;3.45;3.15;;;;;;;4.56;78.92;97673.06;4915720;29;20040;-63
2021/12/08 00:36:05;;;;;;;2.53;2.33;;;;;;;4.56;78.99;97680.75;4898929;28;20047;-63
2021/12/08 00:38:33;;;;;;;3.85;2.50;;;;;;;4.57;78.84;97665.41;4915733;29;20123;-63
2021/12/08 00:41:01;;;;;;;2.75;2.50;;;;;;;4.57;79.26;97678.22;4899159;29;20135;-63
2021/12/08 00:43:27;;;;;;;4.85;2.30;;;;;;;4.59;79.16;97675.66;4915663;29;20028;-62
2021/12/08 00:45:53;;;;;;;3.42;2.35;;;;;;;4.60;79.15;97661.09;4915680;29;20127;-63
2021/12/08 00:48:19;;;;;;;3.78;2.25;;;;;;;4.61;78.98;97678.19;4914593;29;20032;-63
2021/12/08 00:50:48;;;;;;;2.63;2.17;;;;;;;4.61;78.81;97678.19;4914240;29;20060;-64
2021/12/08 00:53:14;;;;;;;2.35;2.00;;;;;;;4.61;79.04;97673.06;4898639;28;20035;-63
2021/12/08 00:55:47;;;;;;;2.67;2.30;;;;;;;4.60;78.96;97669.66;4915733;29;20036;-62
2021/12/08 00:58:15;;;;;;;3.60;2.10;;;;;;;4.61;79.32;97670.50;4914481;28;20048;-63
2021/12/08 01:00:48;;;;;;;4.50;2.42;;;;;;;4.62;79.51;97682.47;4915641;29;20115;-63
2021/12/08 01:03:16;;;;;;;4.95;2.17;;;;;;;4.62;79.45;97667.09;4915653;29;20512;-65
2021/12/08 01:05:48;;;;;;;2.47;1.80;;;;;;;4.64;79.18;97673.09;4915294;29;20036;-63
2021/12/08 01:08:19;;;;;;;2.42;2.15;;;;;;;4.63;79.01;97674.81;4898184;28;20496;-63
2021/12/08 01:10:53;;;;;;;2.63;2.35;;;;;;;4.63;79.19;97663.66;4915466;29;20458;-63
2021/12/08 01:13:25;;;;;;;7.10;2.50;;;;;;;4.62;78.37;97672.22;4914351;29;20063;-62
2021/12/08 01:15:54;;;;;;;4.78;2.53;;;;;;;4.62;78.59;97683.34;4914011;28;20040;-64
2021/12/08 01:18:24;;;;;;;2.38;2.03;;;;;;;4.63;79.30;97681.63;4914029;29;20039;-62
2021/12/08 01:20:56;;;;;;;9.02;2.53;;;;;;;4.63;79.14;97686.75;4913955;29;20046;-63
2021/12/08 01:23:28;;;;;;;7.63;2.53;;;;;;;4.64;78.62;97694.50;4898108;28;20040;-62
2021/12/08 01:26:00;;;;;;;9.52;3.03;;;;;;;4.65;78.86;97690.19;4915282;29;20050;-63
2021/12/08 01:28:25;;;;;;;6.68;2.72;;;;;;;4.68;78.93;97708.16;4915068;29;20094;-62
2021/12/08 01:30:55;;;;;;;8.52;3.47;;;;;;;4.67;78.59;97709.88;4913614;29;20051;-63
2021/12/08 01:33:28;;;;;;;6.50;2.70;;;;;;;4.69;79.03;97717.59;4913431;29;20060;-63
2021/12/08 01:36:01;;;;;;;11.65;2.97;;;;;;;4.69;79.23;97703.03;4913699;29;20040;-63
2021/12/08 01:38:27;;;;;;;4.45;2.85;;;;;;;4.71;79.51;97711.59;4915008;29;20032;-62
2021/12/08 01:40:56;;;;;;;7.75;2.85;;;;;;;4.70;79.23;97717.56;4914779;29;20127;-63
2021/12/08 01:43:27;;;;;;;6.20;2.40;;;;;;;4.72;78.84;97720.16;4897924;28;20127;-63
2021/12/08 01:46:03;;;;;;;9.05;3.90;;;;;;;4.72;79.38;97715.03;4915020;29;20044;-62
2021/12/08 01:48:33;;;;;;;8.73;3.55;;;;;;;4.71;78.90;97715.88;4913841;28;20036;-62
2021/12/08 01:51:11;;;;;;;8.82;2.88;;;;;;;4.73;79.54;97709.88;4913741;29;20043;-62
2021/12/08 01:53:40;;;;;;;7.97;3.35;;;;;;;4.74;79.18;97723.59;4897671;28;20138;-63
2021/12/08 01:56:09;;;;;;;10.95;3.63;;;;;;;4.74;79.52;97723.59;4913947;29;20048;-63
2021/12/08 01:58:36;;;;;;;7.38;3.70;;;;;;;4.75;79.24;97725.28;4914630;29;20036;-63
2021/12/08 02:01:08;;;;;;;18.67;4.25;;;;;;;4.77;79.78;97735.56;4897715;28;20127;-63
2021/12/08 02:03:36;;;;;;;9.75;3.72;;;;;;;4.76;79.40;97739.81;4897581;28;20055;-62
2021/12/08 02:06:03;;;;;;;15.13;2.90;;;;;;;4.76;78.57;97750.09;4897569;28;20057;-63
2021/12/08 02:08:29;;;;;;;11.60;3.33;;;;;;;4.76;79.34;97760.34;4914730;29;20040;-63
2021/12/08 02:10:58;;;;;;;12.45;3.72;;;;;;;4.76;79.42;97752.66;4913355;29;20381;-62
2021/12/08 02:13:28;;;;;;;20.60;3.88;;;;;;;4.77;79.40;97749.22;4914409;29;20040;-63
2021/12/08 02:15:53;;;;;;;7.70;3.78;;;;;;;4.76;79.34;97762.06;4913306;29;20079;-63
2021/12/08 02:18:27;;;;;;;14.75;3.92;;;;;;;4.75;79.64;97758.63;4914450;29;20084;-63
2021/12/08 02:20:52;;;;;;;11.30;4.20;;;;;;;4.76;79.38;97765.47;4897464;28;20511;-63
2021/12/08 02:23:19;;;;;;;10.32;3.45;;;;;;;4.76;78.59;97772.34;4914343;29;20044;-63
2021/12/08 02:25:50;;;;;;;7.80;3.33;;;;;;;4.75;79.38;97768.91;4900753;28;20036;-64
2021/12/08 02:28:22;;;;;;;10.20;3.17;;;;;;;4.77;79.33;97768.94;4916682;29;20043;-63
2021/12/08 02:30:59;;;;;;;17.23;4.13;;;;;;;4.76;79.34;97772.34;4900969;28;20051;-64
2021/12/08 02:47:44;;;;;;;;;;;;;;;4.71;78.78;97762.91;4918085;29;20040;-63
2021/12/08 02:50:07;;;;;;;10.18;3.50;;;;;;;4.70;79.11;97774.03;4917348;28;20438;-63
2021/12/08 02:52:35;;;;;;;7.05;3.75;;;;;;;4.71;79.76;97762.91;4900389;28;20091;-63
2021/12/08 02:55:06;;;;;;;10.85;3.97;;;;;;;4.72;79.71;97763.78;4916225;29;20450;-63
2021/12/08 02:57:32;;;;;;;12.35;4.18;;;;;;;4.72;79.49;97784.31;4917242;29;20033;-63
2021/12/08 03:00:04;;;;;;;7.20;3.45;;;;;;;4.71;79.49;97770.63;4917377;29;20043;-64
2021/12/08 03:02:32;;;;;;;12.32;3.55;;;;;;;4.71;79.51;97780.03;4916913;29;20086;-63
2021/12/08 03:05:00;;;;;;;14.95;4.07;;;;;;;4.70;79.61;97781.72;4916321;28;20574;-63
2021/12/08 03:07:26;;;;;;;10.88;3.35;;;;;;;4.70;79.45;97775.75;4917075;29;20048;-63
2021/12/08 03:09:52;;;;;;;21.48;4.07;;;;;;;4.71;79.43;97778.31;4916919;29;20040;-63
2021/12/08 03:12:28;;;;;;;10.15;3.03;;;;;;;4.70;79.45;97774.03;4917048;29;20475;-62
2021/12/08 03:15:02;;;;;;;9.70;4.43;;;;;;;4.71;78.99;97783.44;4900131;28;20488;-62
2021/12/08 03:17:27;;;;;;;8.98;3.78;;;;;;;4.72;79.31;97776.63;4916773;29;20040;-62
2021/12/08 03:19:54;;;;;;;10.23;3.38;;;;;;;4.71;78.88;97780.03;4916748;29;20442;-63
2021/12/08 03:22:20;;;;;;;10.57;3.25;;;;;;;4.70;79.64;97774.03;4899954;28;20491;-63
2021/12/08 03:24:51;;;;;;;7.47;3.05;;;;;;;4.71;79.56;97790.28;4916964;29;20064;-63
2021/12/08 03:27:21;;;;;;;11.73;2.88;;;;;;;4.70;79.42;97796.28;4917220;29;20082;-62
2021/12/08 03:29:56;;;;;;;10.48;4.25;;;;;;;4.69;79.57;97789.44;4916704;29;20047;-63
2021/12/08 03:32:37;;;;;;;12.90;3.88;;;;;;;4.69;79.28;97792.00;4915978;29;20036;-62
2021/12/08 03:35:05;;;;;;;11.23;3.63;;;;;;;4.69;79.77;97799.69;4915838;29;20078;-62
2021/12/08 03:37:35;;;;;;;6.60;2.95;;;;;;;4.69;79.48;97797.97;4914855;29;20158;-63
2021/12/08 03:40:06;;;;;;;11.43;3.20;;;;;;;4.70;79.92;97806.53;4899791;28;20427;-63
2021/12/08 03:42:37;;;;;;;7.85;3.30;;;;;;;4.68;79.29;97791.13;4899244;28;20041;-62
2021/12/08 03:45:08;;;;;;;9.70;3.22;;;;;;;4.68;79.63;97795.41;4916942;29;20033;-62
2021/12/08 03:47:38;;;;;;;12.25;3.50;;;;;;;4.69;79.73;97789.44;4899951;28;20127;-63
2021/12/08 03:50:08;;;;;;;9.45;3.13;;;;;;;4.69;79.21;97794.56;4916415;29;20476;-63
2021/12/08 03:52:36;;;;;;;11.45;3.13;;;;;;;4.69;79.51;97784.31;4899206;28;20042;-64
2021/12/08 03:55:06;;;;;;;12.38;3.90;;;;;;;4.69;79.42;97779.16;4916368;29;20055;-63
2021/12/08 03:57:32;;;;;;;8.95;2.90;;;;;;;4.69;79.45;97782.56;4916578;29;20042;-62
2021/12/08 04:00:00;;;;;;;10.32;3.55;;;;;;;4.68;79.41;97777.44;4915808;29;20036;-63
2021/12/08 04:02:27;;;;;;;12.55;3.95;;;;;;;4.68;79.31;97795.41;4915209;28;20534;-63
2021/12/08 04:04:53;;;;;;;10.63;2.95;;;;;;;4.68;79.26;97819.34;4899504;28;20123;-62
2021/12/08 04:07:19;;;;;;;13.68;4.22;;;;;;;4.68;79.56;97814.22;4916150;29;20064;-63
2021/12/08 04:09:48;;;;;;;11.52;3.72;;;;;;;4.67;79.15;97802.22;4916426;29;20041;-62
2021/12/08 04:12:18;;;;;;;15.93;4.35;;;;;;;4.68;78.83;97800.53;4899694;29;20033;-62
2021/12/08 04:14:55;;;;;;;11.48;3.40;;;;;;;4.68;79.24;97801.38;4899892;29;20094;-62
2021/12/08 04:17:26;;;;;;;11.23;3.13;;;;;;;4.68;79.59;97815.94;4914955;28;20395;-62
2021/12/08 04:19:56;;;;;;;10.50;3.28;;;;;;;4.69;79.28;97830.50;4914813;29;20033;-63
2021/12/08 04:22:34;;;;;;;11.55;3.13;;;;;;;4.67;78.95;97839.88;4914918;29;20468;-63
2021/12/08 04:25:03;;;;;;;11.43;3.38;;;;;;;4.67;79.67;97845.84;4916439;29;20126;-63
2021/12/08 04:27:34;;;;;;;18.98;3.97;;;;;;;4.67;79.43;97842.44;4915029;29;20039;-63
2021/12/08 04:30:00;;;;;;;9.05;3.20;;;;;;;4.66;79.62;97853.56;4898978;28;20039;-63
2021/12/08 04:32:32;;;;;;;12.52;3.92;;;;;;;4.66;79.58;97844.16;4898819;28;20095;-63
2021/12/08 04:35:00;;;;;;;11.35;4.03;;;;;;;4.66;79.35;97843.28;4899842;28;20044;-63
2021/12/08 04:37:35;;;;;;;10.35;3.00;;;;;;;4.65;79.24;97839.88;4898827;28;20079;-63
2021/12/08 04:40:26;;;;;;;11.75;3.05;;;;;;;4.65;79.69;97841.59;4915932;29;20071;-63
2021/12/08 04:43:19;;;;;;;10.77;3.65;;;;;;;4.63;79.43;97833.88;4915692;29;20044;-64
2021/12/08 04:46:11;;;;;;;7.28;3.63;;;;;;;4.63;79.57;97836.47;4898843;28;20503;-62
2021/12/08 05:10:31;;;;;;;6.50;2.40;;;;;;;4.53;79.07;97848.38;4913864;28;20040;-63
2021/12/08 05:13:06;;;;;;;6.32;3.42;;;;;;;4.51;79.15;97849.22;4898732;28;20399;-63
2021/12/08 05:15:40;;;;;;;6.88;3.08;;;;;;;4.52;79.39;97836.41;4915208;29;20036;-63
2021/12/08 05:18:21;;;;;;;19.85;3.30;;;;;;;4.50;79.48;97839.81;4898489;28;20048;-63
2021/12/08 05:20:46;;;;;;;10.75;2.72;;;;;;;4.49;79.29;97846.63;4898741;28;20052;-63
2021/12/08 05:23:16;;;;;;;7.22;2.85;;;;;;;4.51;79.01;97844.09;4915294;29;20052;-63
2021/12/08 05:25:43;;;;;;;7.38;3.13;;;;;;;4.51;79.23;97854.38;4898401;28;20044;-63
2021/12/08 05:28:14;;;;;;;8.23;2.88;;;;;;;4.51;78.91;97852.63;4913803;29;20488;-63
2021/12/08 05:30:48;;;;;;;9.63;3.72;;;;;;;4.52;79.24;97841.53;4913714;29;20524;-63
2021/12/08 05:33:14;;;;;;;14.98;3.33;;;;;;;4.49;79.40;97845.78;4914866;29;20091;-62
2021/12/08 05:35:44;;;;;;;8.73;3.13;;;;;;;4.51;79.30;97844.94;4914713;29;20043;-63
2021/12/08 05:38:12;;;;;;;9.90;2.95;;;;;;;4.48;79.37;97844.91;4913961;28;20119;-64
2021/12/08 05:40:42;;;;;;;9.00;3.20;;;;;;;4.45;78.85;97839.78;4914996;29;20036;-62
2021/12/08 05:43:16;;;;;;;3.20;2.13;;;;;;;4.44;78.91;97845.75;4898510;28;20036;-64
2021/12/08 05:45:45;;;;;;;13.40;3.20;;;;;;;4.46;79.15;97848.34;4897931;28;20040;-63
2021/12/08 05:48:14;;;;;;;7.82;2.80;;;;;;;4.46;79.08;97853.47;4897852;28;20114;-62
2021/12/08 05:50:59;;;;;;;8.70;2.92;;;;;;;4.44;79.01;97856.00;4898163;28;20043;-63
2021/12/08 05:53:26;;;;;;;11.50;3.30;;;;;;;4.47;78.56;97857.75;4913461;29;20036;-62
2021/12/08 05:55:56;;;;;;;8.85;2.60;;;;;;;4.44;78.68;97845.75;4897780;28;20503;-62
2021/12/08 05:58:25;;;;;;;12.90;4.13;;;;;;;4.44;78.63;97832.06;4913718;28;20044;-62
2021/12/08 06:01:06;;;;;;;14.60;3.58;;;;;;;4.41;78.76;97846.59;4913631;29;20067;-63
2021/12/08 06:03:32;;;;;;;10.88;2.75;;;;;;;4.41;79.05;97854.28;4897737;28;20056;-62
2021/12/08 06:06:04;;;;;;;10.73;3.08;;;;;;;4.41;78.87;97853.44;4914492;29;20040;-62
2021/12/08 06:08:29;;;;;;;7.97;3.38;;;;;;;4.39;79.21;97868.81;4913408;29;20041;-63
2021/12/08 06:11:06;;;;;;;9.10;2.97;;;;;;;4.41;78.98;97858.59;4913115;29;20056;-63
2021/12/08 06:13:38;;;;;;;8.80;3.00;;;;;;;4.39;78.57;97855.16;4898025;28;20040;-62
2021/12/08 06:16:11;;;;;;;9.00;3.80;;;;;;;4.39;79.19;97860.28;4897859;28;20044;-63
2021/12/08 06:18:40;;;;;;;13.85;3.08;;;;;;;4.38;78.74;97864.53;4913414;29;20040;-63
2021/12/08 06:21:12;;;;;;;6.95;2.55;;;;;;;4.38;78.72;97868.81;4914313;29;20047;-63
2021/12/08 06:23:43;;;;;;;9.30;3.70;;;;;;;4.39;78.62;97873.09;4914195;29;20040;-63
2021/12/08 06:26:13;;;;;;;8.50;3.60;;;;;;;4.37;79.00;97891.03;4897596;28;20502;-63
2021/12/08 06:28:39;;;;;;;13.30;3.45;;;;;;;4.37;79.35;97888.47;4913257;28;20068;-63
2021/12/08 06:31:16;;;;;;;14.25;3.42;;;;;;;4.38;78.98;97891.91;4914563;29;20515;-63
2021/12/08 06:33:46;;;;;;;14.68;4.00;;;;;;;4.39;78.87;97898.75;4914117;29;20147;-63
2021/12/08 06:36:28;;;;;;;7.40;2.90;;;;;;;4.38;78.92;97909.84;4897625;28;20070;-62
2021/12/08 06:39:03;;;;;;;12.57;4.20;;;;;;;4.37;79.19;97908.13;4913118;29;20115;-63
2021/12/08 06:41:40;;;;;;;8.30;3.35;;;;;;;4.35;79.03;97897.88;4913339;29;20551;-62
2021/12/08 06:44:11;;;;;;;15.43;4.18;;;;;;;4.34;78.65;97893.59;4914148;29;20079;-63
2021/12/08 06:46:44;;;;;;;10.40;3.17;;;;;;;4.35;78.59;97900.44;4914140;29;20500;-63
2021/12/08 06:49:18;;;;;;;10.77;3.67;;;;;;;4.35;78.55;97902.13;4913174;28;20459;-63
2021/12/08 06:51:54;;;;;;;8.43;3.72;;;;;;;4.34;78.58;97911.56;4912916;29;20063;-63
2021/12/08 06:54:36;;;;;;;9.80;3.17;;;;;;;4.35;78.31;97902.13;4914362;29;20037;-64
2021/12/08 06:57:20;;;;;;;11.70;3.63;;;;;;;4.35;78.98;97907.25;4897597;28;20036;-63
2021/12/08 06:59:59;;;;;;;11.52;3.42;;;;;;;4.35;78.42;97917.53;4913934;29;20043;-63
2021/12/08 07:05:35;;;;;;;9.50;3.33;;;;;;;4.36;79.25;97937.19;4912634;28;20040;-63
2021/12/08 07:08:12;;;;;;;10.93;3.13;;;;;;;4.35;78.95;97943.16;4914233;29;20587;-62
2021/12/08 07:10:49;;;;;;;9.18;3.53;;;;;;;4.35;79.14;97940.59;4912828;29;20032;-62
2021/12/08 07:13:25;;;;;;;10.23;3.05;;;;;;;4.35;79.02;97945.72;4917057;29;20127;-63
2021/12/08 07:16:10;;;;;;;9.18;3.55;;;;;;;4.36;79.00;97965.41;4917287;29;20035;-62
2021/12/08 07:18:54;;;;;;;9.65;3.05;;;;;;;4.37;79.02;97954.31;4915789;28;20377;-63
2021/12/08 07:21:32;;;;;;;10.48;3.92;;;;;;;4.37;78.48;97959.44;4915968;29;20040;-63
2021/12/08 07:24:06;;;;;;;11.95;3.85;;;;;;;4.38;78.48;97976.53;4916859;29;20036;-62
2021/12/08 07:26:33;;;;;;;;;;;;;;;4.37;79.26;97977.38;4917524;29;20124;-63
2021/12/08 07:29:08;;;;;;;10.13;4.38;;;;;;;4.34;78.98;97967.09;4916825;29;20025;-63
2021/12/08 07:31:44;;;;;;;9.40;3.95;;;;;;;4.32;79.09;97969.66;4916952;29;20048;-63
2021/12/08 07:34:19;;;;;;;9.52;3.35;;;;;;;4.33;78.54;97973.06;4915665;29;20067;-63
2021/12/08 07:36:53;;;;;;;14.95;3.08;;;;;;;4.35;79.02;97984.22;4917207;29;20098;-63
2021/12/08 07:39:26;;;;;;;12.75;3.35;;;;;;;4.32;78.72;97985.06;4916880;29;20040;-63
2021/12/08 07:42:01;;;;;;;10.93;3.00;;;;;;;4.32;78.89;97986.75;4915556;29;20544;-63
2021/12/08 07:44:32;;;;;;;11.45;3.35;;;;;;;4.32;78.81;97992.75;4915764;29;20048;-63
2021/12/08 07:47:06;;;;;;;6.13;2.55;;;;;;;4.33;78.33;97997.03;4916535;29;20048;-64
2021/12/08 07:49:40;;;;;;;6.20;2.25;;;;;;;4.32;78.62;98000.44;4916828;29;20036;-63
2021/12/08 07:52:17;;;;;;;10.25;2.80;;;;;;;4.32;78.53;98012.38;4915231;29;20054;-63
2021/12/08 07:54:44;;;;;;;11.57;3.80;;;;;;;4.33;78.84;98008.97;4915526;29;20407;-63
2021/12/08 07:57:17;;;;;;;11.60;3.08;;;;;;;4.32;78.84;98013.25;4899468;28;20036;-63
2021/12/08 07:59:54;;;;;;;7.88;4.20;;;;;;;4.34;78.94;98003.00;4899705;28;20416;-63
2021/12/08 08:02:25;;;;;;;11.73;3.15;;;;;;;4.33;78.46;98004.72;4916488;29;20080;-62
2021/12/08 08:05:01;;;;;;;9.52;2.65;;;;;;;4.32;78.64;98003.00;4916509;29;20040;-62
2021/12/08 08:07:27;;;;;;;8.73;3.63;;;;;;;4.33;78.08;97999.59;4916380;29;20048;-63
2021/12/08 08:10:01;;;;;;;9.27;3.25;;;;;;;4.34;78.90;98013.25;4916122;29;20495;-63
2021/12/08 08:12:32;;;;;;;12.50;3.65;;;;;;;4.33;78.44;98004.72;4899756;28;20032;-62
2021/12/08 08:15:07;;;;;;;6.28;2.95;;;;;;;4.35;78.58;98008.16;4899754;28;20079;-62
2021/12/08 08:17:41;;;;;;;16.75;3.97;;;;;;;4.33;78.70;98007.28;4915010;29;20033;-63
2021/12/08 08:20:15;;;;;;;10.05;3.50;;;;;;;4.34;78.91;97997.88;4915321;29;20079;-62
2021/12/08 08:22:46;;;;;;;7.47;2.88;;;;;;;4.35;78.52;97992.78;4899044;28;20040;-62
2021/12/08 08:25:21;;;;;;;16.92;4.22;;;;;;;4.35;78.84;98002.16;4899340;29;20044;-63
2021/12/08 08:27:52;;;;;;;7.80;2.90;;;;;;;4.35;78.62;97994.47;4914978;29;20194;-63
2021/12/08 08:30:22;;;;;;;13.13;3.08;;;;;;;4.35;78.94;97986.78;4914999;29;20033;-63
2021/12/08 08:32:51;;;;;;;6.72;3.75;;;;;;;4.35;78.70;97992.78;4898844;28;20520;-63
2021/12/08 08:35:30;;;;;;;7.20;3.17;;;;;;;4.34;78.58;97996.19;4914728;29;20048;-64
2021/12/08 08:38:03;;;;;;;11.85;3.78;;;;;;;4.35;78.08;98017.53;4914672;29;20036;-63
2021/12/08 08:40:34;;;;;;;8.02;2.95;;;;;;;4.35;78.77;98017.53;4914804;29;20044;-63
2021/12/08 08:42:59;;;;;;;9.48;3.15;;;;;;;4.36;78.52;98011.56;4915835;29;20119;-63
2021/12/08 08:45:40;;;;;;;8.98;3.38;;;;;;;4.32;78.55;98027.78;4914509;29;20490;-63
2021/12/08 08:48:13;;;;;;;6.63;3.22;;;;;;;4.34;78.10;98020.97;4916098;29;20040;-62
2021/12/08 08:51:08;;;;;;;11.65;3.10;;;;;;;4.33;78.21;98021.81;4898745;28;20036;-63
2021/12/08 08:53:44;;;;;;;14.55;3.92;;;;;;;4.34;78.53;98023.53;4915609;29;20514;-63
2021/12/08 08:56:17;;;;;;;9.55;2.97;;;;;;;4.34;78.30;98036.34;4915807;29;20048;-63
2021/12/08 08:58:51;;;;;;;10.80;3.70;;;;;;;4.31;78.27;98029.50;4915670;29;20131;-64
2021/12/08 09:01:28;;;;;;;6.90;3.53;;;;;;;4.32;78.72;98018.38;4898848;28;20079;-62
2021/12/08 09:04:06;;;;;;;12.20;3.45;;;;;;;4.32;78.22;98030.34;4915419;29;20050;-62
2021/12/08 09:06:38;;;;;;;8.63;2.85;;;;;;;4.31;78.29;98015.78;4914067;29;20067;-62
2021/12/08 09:09:14;;;;;;;8.77;3.35;;;;;;;4.32;78.05;98013.25;4898871;28;20071;-63
2021/12/08 09:12:03;;;;;;;8.48;3.08;;;;;;;4.35;79.03;98020.13;4913387;29;20411;-63
2021/12/08 09:14:43;;;;;;;11.90;3.80;;;;;;;4.34;78.77;98015.81;4898123;28;20570;-62
2021/12/08 09:17:43;;;;;;;10.57;3.05;;;;;;;4.33;78.79;98024.38;4915721;29;20039;-62
2021/12/08 09:20:22;;;;;;;7.82;2.78;;;;;;;4.33;78.59;98021.81;4893947;28;20056;-62
2021/12/08 09:23:06;;;;;;;5.70;2.80;;;;;;;4.32;77.79;98023.53;4898407;28;20107;-62
2021/12/08 09:25:42;;;;;;;8.38;3.00;;;;;;;4.32;78.28;98017.50;4914194;29;20048;-62
2021/12/08 09:28:18;;;;;;;7.18;3.55;;;;;;;4.34;79.08;98020.97;4898546;28;20047;-63
2021/12/08 09:31:21;;;;;;;9.88;3.28;;;;;;;4.34;78.13;98008.13;4898306;28;20075;-63
2021/12/08 09:34:02;;;;;;;6.07;2.80;;;;;;;4.34;78.29;98018.38;4913251;29;20170;-62
2021/12/08 09:36:39;;;;;;;9.52;3.08;;;;;;;4.34;78.24;98015.81;4898405;28;20052;-62
2021/12/08 09:39:46;;;;;;;12.98;2.95;;;;;;;4.33;78.29;98014.97;4915067;29;20415;-63
2021/12/08 09:42:25;;;;;;;5.32;2.90;;;;;;;4.32;78.20;98008.13;4913470;28;20043;-62
2021/12/08 09:45:09;;;;;;;10.15;3.28;;;;;;;4.33;78.31;98011.53;4914727;29;20040;-63
2021/12/08 09:47:38;;;;;;;4.95;2.90;;;;;;;4.33;78.58;98014.09;4914930;29;20555;-62
2021/12/08 09:50:12;;;;;;;8.90;3.63;;;;;;;4.33;78.70;98006.41;4913674;29;20060;-63
2021/12/08 09:52:44;;;;;;;11.65;3.40;;;;;;;4.33;78.62;98003.84;4914949;29;20041;-63
2021/12/08 09:55:14;;;;;;;7.68;2.80;;;;;;;4.32;78.17;98003.00;4914404;28;20052;-63
2021/12/08 09:57:39;;;;;;;8.93;3.17;;;;;;;4.34;78.96;97995.31;4897826;28;20131;-62
2021/12/08 10:00:18;;;;;;;6.20;2.72;;;;;;;4.34;78.62;97996.19;4914702;29;20075;-63
2021/12/08 10:02:45;;;;;;;6.63;3.97;;;;;;;4.32;78.81;97987.63;4897764;28;20044;-63
2021/12/08 10:05:18;;;;;;;8.82;2.95;;;;;;;4.33;78.30;97983.31;4913472;29;20040;-63
2021/12/08 10:07:48;;;;;;;6.55;2.95;;;;;;;4.32;78.54;97982.47;4914599;29;20487;-62
2021/12/08 10:10:15;;;;;;;11.35;2.90;;;;;;;4.34;78.24;97983.34;4897538;29;20122;-62
2021/12/08 10:12:44;;;;;;;9.52;2.83;;;;;;;4.34;78.52;97987.63;4897766;28;20455;-62
2021/12/08 10:15:14;;;;;;;13.27;2.60;;;;;;;4.33;78.72;97993.59;4913179;28;20036;-63
2021/12/08 10:17:39;;;;;;;9.35;3.47;;;;;;;4.33;78.52;97989.34;4897721;28;20032;-62
2021/12/08 10:20:11;;;;;;;8.95;3.35;;;;;;;4.33;78.61;97984.22;4913168;28;20039;-62
2021/12/08 10:22:51;;;;;;;8.27;3.30;;;;;;;4.33;78.34;97991.03;4899064;28;20055;-63
2021/12/08 10:25:24;;;;;;;9.27;3.38;;;;;;;4.35;78.14;97999.59;4914472;29;20044;-63
2021/12/08 10:28:11;;;;;;;7.63;2.97;;;;;;;4.36;78.71;97998.75;4897694;28;20067;-63
2021/12/08 10:30:47;;;;;;;12.98;3.47;;;;;;;4.35;78.12;98000.47;4898007;28;20044;-62
2021/12/08 10:36:55;;;;;;;7.47;3.03;;;;;;;4.36;78.27;97988.50;4914456;29;20102;-63
2021/12/08 10:39:30;;;;;;;7.72;2.75;;;;;;;4.36;78.66;97980.78;4913119;29;20047;-62
2021/12/08 10:42:13;;;;;;;8.45;2.78;;;;;;;4.36;77.75;97973.94;4897753;28;20044;-63
2021/12/08 10:44:49;;;;;;;8.65;3.03;;;;;;;4.37;78.43;97975.66;4897246;28;20059;-62
2021/12/08 10:48:00;;;;;;;7.93;2.92;;;;;;;4.37;77.71;97990.22;4916708;29;20381;-63
2021/12/08 10:56:06;;;;;;;6.75;3.17;;;;;;;4.39;78.60;98009.03;4917687;29;20048;-63
2021/12/08 10:58:39;;;;;;;13.00;3.88;;;;;;;4.38;78.19;97997.06;4916232;28;20055;-63
2021/12/08 11:01:20;;;;;;;8.20;4.07;;;;;;;4.39;77.71;98003.91;4916438;29;20047;-63
2021/12/08 11:04:02;;;;;;;17.70;4.60;;;;;;;4.40;77.84;98010.75;4915693;29;20440;-63
2021/12/08 11:06:33;;;;;;;14.27;4.03;;;;;;;4.40;78.09;98003.91;4916042;29;20047;-63
2021/12/08 11:09:06;;;;;;;16.83;4.53;;;;;;;4.42;78.47;98012.47;4900472;28;20040;-63
2021/12/08 11:11:33;;;;;;;14.38;3.95;;;;;;;4.45;77.41;98015.91;4917176;29;20044;-63
2021/12/08 11:14:04;;;;;;;8.88;3.80;;;;;;;4.46;78.32;98018.50;4916973;29;20035;-62
2021/12/08 11:16:36;;;;;;;8.73;3.55;;;;;;;4.47;78.46;98020.22;4915727;29;20478;-62
2021/12/08 11:19:19;;;;;;;11.13;3.10;;;;;;;4.46;77.92;98026.19;4900792;29;20063;-62
2021/12/08 11:21:54;;;;;;;9.77;3.63;;;;;;;4.46;78.36;98028.75;4917098;29;20051;-62
2021/12/08 11:24:35;;;;;;;12.05;3.85;;;;;;;4.44;77.91;98033.00;4899869;28;20467;-63
2021/12/08 11:27:08;;;;;;;;;;;;;;;4.44;77.81;98043.25;4916517;28;20039;-64
2021/12/08 11:29:40;;;;;;;12.68;3.05;;;;;;;4.43;77.80;98036.44;4915698;29;19946;-62
2021/12/08 11:32:08;;;;;;;9.23;2.90;;;;;;;4.40;78.07;98034.69;4899807;29;20123;-62
2021/12/08 11:34:43;;;;;;;7.57;3.22;;;;;;;4.42;78.06;98035.56;4915667;29;20480;-62
2021/12/08 11:37:16;;;;;;;7.28;3.30;;;;;;;4.44;77.82;98027.03;4917015;29;20112;-62
2021/12/08 11:39:55;;;;;;;7.05;3.25;;;;;;;4.43;78.15;98033.88;4915359;28;20492;-63
2021/12/08 11:42:35;;;;;;;13.23;3.38;;;;;;;4.44;77.97;98022.75;4916821;29;20036;-62
2021/12/08 11:45:18;;;;;;;11.70;3.22;;;;;;;4.45;78.16;98034.72;4915487;28;20072;-62
2021/12/08 11:47:55;;;;;;;11.55;3.50;;;;;;;4.45;78.07;98044.13;4915400;28;20039;-62
2021/12/08 11:50:24;;;;;;;12.45;4.03;;;;;;;4.42;77.77;98029.59;4915840;28;20090;-63
2021/12/08 11:52:58;;;;;;;8.48;3.20;;;;;;;4.42;77.80;98038.13;4899809;28;20055;-63
2021/12/08 11:55:29;;;;;;;11.48;3.95;;;;;;;4.44;78.27;98033.00;4916506;29;20527;-62
2021/12/08 11:58:01;;;;;;;7.47;3.70;;;;;;;4.44;78.00;98029.59;4915700;29;20040;-64
2021/12/08 12:00:34;;;;;;;13.50;3.30;;;;;;;4.46;77.83;98025.34;4899885;28;20047;-62
2021/12/08 12:03:10;;;;;;;8.13;2.87;;;;;;;4.45;78.35;98034.72;4916360;29;20056;-62
2021/12/08 12:05:45;;;;;;;10.23;3.80;;;;;;;4.46;77.82;98039.00;4899605;28;20040;-63
2021/12/08 12:08:19;;;;;;;8.77;3.85;;;;;;;4.47;78.00;98038.16;4916280;29;20040;-63
2021/12/08 12:10:48;;;;;;;;;;;;;;;4.48;78.30;98042.44;4916889;29;20407;-63
2021/12/08 12:13:17;;;;;;;9.55;2.58;;;;;;;4.47;78.06;98056.13;4916046;29;19919;-62
2021/12/08 12:15:50;;;;;;;12.73;3.30;;;;;;;4.47;77.78;98058.69;4899308;29;20044;-63
2021/12/08 12:18:30;;;;;;;11.15;3.38;;;;;;;4.45;77.94;98050.13;4916500;29;20032;-63
2021/12/08 12:21:20;;;;;;;7.43;2.60;;;;;;;4.47;77.69;98063.81;4916346;29;20043;-63
2021/12/08 12:24:01;;;;;;;9.63;3.28;;;;;;;4.48;77.59;98068.09;4915116;29;20064;-63
2021/12/08 12:26:53;;;;;;;10.60;3.93;;;;;;;4.47;78.08;98073.25;4915032;29;20048;-62
2021/12/08 12:29:37;;;;;;;10.13;3.40;;;;;;;4.47;77.90;98068.94;4914858;29;20047;-62
2021/12/08 12:32:10;;;;;;;7.40;3.75;;;;;;;4.50;78.15;98070.69;4915883;29;20040;-63
2021/12/08 12:34:42;;;;;;;9.32;3.38;;;;;;;4.49;77.49;98077.53;4899333;28;20040;-63
2021/12/08 12:37:17;;;;;;;5.47;3.13;;;;;;;4.49;77.60;98077.53;4899017;28;20126;-63
2021/12/08 12:39:54;;;;;;;13.15;4.57;;;;;;;4.50;78.05;98092.06;4914588;29;20051;-63
2021/12/08 12:42:25;;;;;;;6.97;3.15;;;;;;;4.51;77.76;98093.78;4898988;28;20491;-62
2021/12/08 12:45:01;;;;;;;;;;;;;;;4.51;78.01;98090.38;4916218;29;20084;-62
2021/12/08 12:47:30;;;;;;;15.13;4.15;;;;;;;4.52;77.95;98097.19;4915863;29;19915;-62
2021/12/08 12:50:19;;;;;;;7.95;3.30;;;;;;;4.53;78.31;98098.94;4914420;29;20040;-62
2021/12/08 12:52:51;;;;;;;7.35;3.25;;;;;;;4.51;77.60;98098.94;4914568;29;20059;-62
2021/12/08 12:55:21;;;;;;;9.05;3.20;;;;;;;4.52;77.96;98098.06;4915566;29;20066;-63
2021/12/08 12:58:03;;;;;;;7.50;3.17;;;;;;;4.55;78.43;98104.94;4914483;29;20036;-62